sensor_id;sensor_type;location;lat;lon;timestamp;temperature;humidity
12438;DHT22;6283;51.330;12.374;2023-07-20T00:01:59;16.20;19.10
12438;DHT22;6283;51.330;12.374;2023-07-20T00:04:24;16.20;25.30
12438;DHT22;6283;51.330;12.374;2023-07-20T00:06:50;16.20;27.50
12438;DHT22;6283;51.330;12.374;2023-07-20T00:09:15;16.20;19.30
12438;DHT22;6283;51.330;12.374;2023-07-20T00:11:48;16.20;9.40
12438;DHT22;6283;51.330;12.374;2023-07-20T00:14:14;16.20;1.00
12438;DHT22;6283;51.330;12.374;2023-07-20T00:16:40;16.20;1.00
12438;DHT22;6283;51.330;12.374;2023-07-20T00:19:05;16.20;1.00
12438;DHT22;6283;51.330;12.374;2023-07-20T00:21:32;16.20;1.00
12438;DHT22;6283;51.330;12.374;2023-07-20T00:23:57;16.20;1.00
12438;DHT22;6283;51.330;12.374;2023-07-20T00:26:23;16.20;1.00
12438;DHT22;6283;51.330;12.374;2023-07-20T00:28:50;16.20;1.00
12438;DHT22;6283;51.330;12.374;2023-07-20T00:31:17;16.20;1.00
12438;DHT22;6283;51.330;12.374;2023-07-20T00:33:42;16.20;1.00
12438;DHT22;6283;51.330;12.374;2023-07-20T00:36:08;16.20;1.00
12438;DHT22;6283;51.330;12.374;2023-07-20T00:38:34;16.30;1.00
12438;DHT22;6283;51.330;12.374;2023-07-20T00:40:59;16.30;1.00
12438;DHT22;6283;51.330;12.374;2023-07-20T00:43:25;16.30;1.00
12438;DHT22;6283;51.330;12.374;2023-07-20T00:45:51;16.30;1.00
12438;DHT22;6283;51.330;12.374;2023-07-20T00:48:16;16.30;1.00
12438;DHT22;6283;51.330;12.374;2023-07-20T00:50:42;16.30;1.00
12438;DHT22;6283;51.330;12.374;2023-07-20T00:53:08;16.30;1.00
12438;DHT22;6283;51.330;12.374;2023-07-20T00:55:34;16.30;1.00
12438;DHT22;6283;51.330;12.374;2023-07-20T00:58:00;16.30;1.00
12438;DHT22;6283;51.330;12.374;2023-07-20T01:00:26;16.20;1.00
12438;DHT22;6283;51.330;12.374;2023-07-20T01:02:52;16.30;1.00
12438;DHT22;6283;51.330;12.374;2023-07-20T01:05:17;16.20;1.00
12438;DHT22;6283;51.330;12.374;2023-07-20T01:07:51;16.20;1.00
12438;DHT22;6283;51.330;12.374;2023-07-20T01:10:40;16.20;1.00
12438;DHT22;6283;51.330;12.374;2023-07-20T01:13:10;16.10;1.00
12438;DHT22;6283;51.330;12.374;2023-07-20T01:15:36;16.10;1.00
12438;DHT22;6283;51.330;12.374;2023-07-20T01:18:02;16.00;1.00
12438;DHT22;6283;51.330;12.374;2023-07-20T01:20:31;16.00;1.00
12438;DHT22;6283;51.330;12.374;2023-07-20T01:23:27;16.00;1.00
12438;DHT22;6283;51.330;12.374;2023-07-20T01:26:45;16.00;1.00
12438;DHT22;6283;51.330;12.374;2023-07-20T01:31:54;16.00;1.00
12438;DHT22;6283;51.330;12.374;2023-07-20T01:34:22;16.00;1.00
12438;DHT22;6283;51.330;12.374;2023-07-20T01:36:50;16.00;1.00
12438;DHT22;6283;51.330;12.374;2023-07-20T01:39:19;15.90;1.00
12438;DHT22;6283;51.330;12.374;2023-07-20T01:41:45;15.90;1.00
12438;DHT22;6283;51.330;12.374;2023-07-20T01:44:13;15.90;1.00
12438;DHT22;6283;51.330;12.374;2023-07-20T01:46:38;15.90;1.00
12438;DHT22;6283;51.330;12.374;2023-07-20T01:49:04;15.80;1.00
12438;DHT22;6283;51.330;12.374;2023-07-20T01:51:29;15.80;1.00
12438;DHT22;6283;51.330;12.374;2023-07-20T01:53:55;15.80;1.00
12438;DHT22;6283;51.330;12.374;2023-07-20T01:56:21;15.80;1.00
12438;DHT22;6283;51.330;12.374;2023-07-20T01:58:46;15.70;1.00
12438;DHT22;6283;51.330;12.374;2023-07-20T02:01:12;15.70;1.00
12438;DHT22;6283;51.330;12.374;2023-07-20T02:03:37;15.70;1.00
12438;DHT22;6283;51.330;12.374;2023-07-20T02:06:03;15.70;1.00
12438;DHT22;6283;51.330;12.374;2023-07-20T02:08:29;15.70;1.00
12438;DHT22;6283;51.330;12.374;2023-07-20T02:10:54;15.60;1.00
12438;DHT22;6283;51.330;12.374;2023-07-20T02:13:20;15.60;1.00
12438;DHT22;6283;51.330;12.374;2023-07-20T02:15:45;15.60;1.00
12438;DHT22;6283;51.330;12.374;2023-07-20T02:18:12;15.60;1.00
12438;DHT22;6283;51.330;12.374;2023-07-20T02:20:38;15.60;3.40
12438;DHT22;6283;51.330;12.374;2023-07-20T02:23:05;15.50;20.10
12438;DHT22;6283;51.330;12.374;2023-07-20T02:25:31;15.50;26.50
12438;DHT22;6283;51.330;12.374;2023-07-20T02:27:57;15.50;43.40
12438;DHT22;6283;51.330;12.374;2023-07-20T02:30:23;15.50;66.10
12438;DHT22;6283;51.330;12.374;2023-07-20T02:32:49;15.50;91.70
12438;DHT22;6283;51.330;12.374;2023-07-20T02:35:15;15.50;99.90
12438;DHT22;6283;51.330;12.374;2023-07-20T02:37:41;15.50;99.90
12438;DHT22;6283;51.330;12.374;2023-07-20T02:40:07;15.50;99.90
12438;DHT22;6283;51.330;12.374;2023-07-20T02:42:34;15.50;99.90
12438;DHT22;6283;51.330;12.374;2023-07-20T02:45:01;15.60;99.90
12438;DHT22;6283;51.330;12.374;2023-07-20T02:47:27;15.60;99.90
12438;DHT22;6283;51.330;12.374;2023-07-20T02:49:52;15.60;99.90
12438;DHT22;6283;51.330;12.374;2023-07-20T02:52:18;15.60;99.90
12438;DHT22;6283;51.330;12.374;2023-07-20T02:54:43;15.60;99.90
12438;DHT22;6283;51.330;12.374;2023-07-20T02:57:09;15.70;99.90
12438;DHT22;6283;51.330;12.374;2023-07-20T02:59:35;15.70;99.90
12438;DHT22;6283;51.330;12.374;2023-07-20T03:02:00;15.70;99.90
12438;DHT22;6283;51.330;12.374;2023-07-20T03:04:26;15.70;99.90
12438;DHT22;6283;51.330;12.374;2023-07-20T03:06:52;15.70;99.90
12438;DHT22;6283;51.330;12.374;2023-07-20T03:09:18;15.70;99.90
12438;DHT22;6283;51.330;12.374;2023-07-20T03:11:44;15.70;99.90
12438;DHT22;6283;51.330;12.374;2023-07-20T03:14:09;15.70;99.90
12438;DHT22;6283;51.330;12.374;2023-07-20T03:16:36;15.80;99.90
12438;DHT22;6283;51.330;12.374;2023-07-20T03:19:02;15.80;99.90
12438;DHT22;6283;51.330;12.374;2023-07-20T03:21:27;15.70;99.90
12438;DHT22;6283;51.330;12.374;2023-07-20T03:23:54;15.70;99.90
12438;DHT22;6283;51.330;12.374;2023-07-20T03:26:20;15.70;99.90
12438;DHT22;6283;51.330;12.374;2023-07-20T03:28:46;15.70;99.90
12438;DHT22;6283;51.330;12.374;2023-07-20T03:31:11;15.80;99.90
12438;DHT22;6283;51.330;12.374;2023-07-20T03:33:37;15.80;99.90
12438;DHT22;6283;51.330;12.374;2023-07-20T03:36:03;15.80;99.90
12438;DHT22;6283;51.330;12.374;2023-07-20T03:38:28;15.80;99.90
12438;DHT22;6283;51.330;12.374;2023-07-20T03:40:55;15.80;99.90
12438;DHT22;6283;51.330;12.374;2023-07-20T03:43:22;15.90;99.90
12438;DHT22;6283;51.330;12.374;2023-07-20T03:45:48;15.90;99.90
12438;DHT22;6283;51.330;12.374;2023-07-20T03:48:18;15.90;57.60
12438;DHT22;6283;51.330;12.374;2023-07-20T03:50:45;16.00;51.40
12438;DHT22;6283;51.330;12.374;2023-07-20T03:53:14;16.00;33.10
12438;DHT22;6283;51.330;12.374;2023-07-20T03:55:41;16.00;1.00
12438;DHT22;6283;51.330;12.374;2023-07-20T03:58:07;16.10;1.00
12438;DHT22;6283;51.330;12.374;2023-07-20T04:00:34;16.10;1.00
12438;DHT22;6283;51.330;12.374;2023-07-20T04:03:00;16.10;1.00
12438;DHT22;6283;51.330;12.374;2023-07-20T04:05:28;16.20;1.00
12438;DHT22;6283;51.330;12.374;2023-07-20T04:07:55;16.20;1.00
12438;DHT22;6283;51.330;12.374;2023-07-20T04:10:21;16.20;1.00
12438;DHT22;6283;51.330;12.374;2023-07-20T04:12:46;16.20;1.00
12438;DHT22;6283;51.330;12.374;2023-07-20T04:15:15;16.20;1.00
12438;DHT22;6283;51.330;12.374;2023-07-20T04:17:41;16.20;1.00
12438;DHT22;6283;51.330;12.374;2023-07-20T04:20:07;16.20;1.00
12438;DHT22;6283;51.330;12.374;2023-07-20T04:22:34;16.20;1.00
12438;DHT22;6283;51.330;12.374;2023-07-20T04:24:59;16.20;1.00
12438;DHT22;6283;51.330;12.374;2023-07-20T04:27:25;16.20;1.00
12438;DHT22;6283;51.330;12.374;2023-07-20T04:29:51;16.30;1.00
12438;DHT22;6283;51.330;12.374;2023-07-20T04:32:17;16.30;1.00
12438;DHT22;6283;51.330;12.374;2023-07-20T04:34:43;16.30;1.00
12438;DHT22;6283;51.330;12.374;2023-07-20T04:37:08;16.30;1.00
12438;DHT22;6283;51.330;12.374;2023-07-20T04:39:34;16.30;1.00
12438;DHT22;6283;51.330;12.374;2023-07-20T04:42:00;16.30;1.00
12438;DHT22;6283;51.330;12.374;2023-07-20T04:44:25;16.30;1.00
12438;DHT22;6283;51.330;12.374;2023-07-20T04:46:51;16.30;1.00
12438;DHT22;6283;51.330;12.374;2023-07-20T04:49:17;16.30;1.00
12438;DHT22;6283;51.330;12.374;2023-07-20T04:51:42;16.30;1.00
12438;DHT22;6283;51.330;12.374;2023-07-20T04:54:08;16.30;1.00
12438;DHT22;6283;51.330;12.374;2023-07-20T04:56:34;16.30;1.00
12438;DHT22;6283;51.330;12.374;2023-07-20T04:58:59;16.30;1.00
12438;DHT22;6283;51.330;12.374;2023-07-20T05:01:25;16.30;1.00
12438;DHT22;6283;51.330;12.374;2023-07-20T05:03:52;16.30;1.00
12438;DHT22;6283;51.330;12.374;2023-07-20T05:06:18;16.40;1.00
12438;DHT22;6283;51.330;12.374;2023-07-20T05:08:43;16.40;1.00
12438;DHT22;6283;51.330;12.374;2023-07-20T05:11:10;16.40;1.00
12438;DHT22;6283;51.330;12.374;2023-07-20T05:13:36;16.40;1.00
12438;DHT22;6283;51.330;12.374;2023-07-20T05:16:02;16.50;1.00
12438;DHT22;6283;51.330;12.374;2023-07-20T05:18:27;16.40;1.00
12438;DHT22;6283;51.330;12.374;2023-07-20T05:20:53;16.50;1.00
12438;DHT22;6283;51.330;12.374;2023-07-20T05:23:20;16.50;1.00
12438;DHT22;6283;51.330;12.374;2023-07-20T05:25:46;16.50;1.00
12438;DHT22;6283;51.330;12.374;2023-07-20T05:28:12;16.50;1.00
12438;DHT22;6283;51.330;12.374;2023-07-20T05:30:38;16.60;1.00
12438;DHT22;6283;51.330;12.374;2023-07-20T05:33:05;16.60;1.00
12438;DHT22;6283;51.330;12.374;2023-07-20T05:35:30;16.70;1.00
12438;DHT22;6283;51.330;12.374;2023-07-20T05:37:56;16.70;1.00
12438;DHT22;6283;51.330;12.374;2023-07-20T05:40:22;16.70;99.90
12438;DHT22;6283;51.330;12.374;2023-07-20T05:42:48;16.70;99.90
12438;DHT22;6283;51.330;12.374;2023-07-20T05:45:17;16.70;99.90
12438;DHT22;6283;51.330;12.374;2023-07-20T05:47:43;16.70;99.90
12438;DHT22;6283;51.330;12.374;2023-07-20T05:50:09;16.70;99.90
12438;DHT22;6283;51.330;12.374;2023-07-20T05:52:35;16.70;1.00
12438;DHT22;6283;51.330;12.374;2023-07-20T05:55:00;16.80;1.00
12438;DHT22;6283;51.330;12.374;2023-07-20T05:57:26;16.80;1.00
12438;DHT22;6283;51.330;12.374;2023-07-20T05:59:52;16.80;99.90
12438;DHT22;6283;51.330;12.374;2023-07-20T06:02:17;16.80;1.00
12438;DHT22;6283;51.330;12.374;2023-07-20T06:04:43;16.90;1.00
12438;DHT22;6283;51.330;12.374;2023-07-20T06:07:08;17.00;1.00
12438;DHT22;6283;51.330;12.374;2023-07-20T06:09:34;17.10;1.00
12438;DHT22;6283;51.330;12.374;2023-07-20T06:12:00;17.10;1.00
12438;DHT22;6283;51.330;12.374;2023-07-20T06:14:26;17.20;1.00
12438;DHT22;6283;51.330;12.374;2023-07-20T06:16:51;17.20;1.00
12438;DHT22;6283;51.330;12.374;2023-07-20T06:19:17;17.40;99.90
12438;DHT22;6283;51.330;12.374;2023-07-20T06:21:43;17.40;99.90
12438;DHT22;6283;51.330;12.374;2023-07-20T06:24:09;17.50;99.90
12438;DHT22;6283;51.330;12.374;2023-07-20T06:26:34;17.60;1.00
12438;DHT22;6283;51.330;12.374;2023-07-20T06:29:07;17.70;1.00
12438;DHT22;6283;51.330;12.374;2023-07-20T06:31:33;17.70;1.00
12438;DHT22;6283;51.330;12.374;2023-07-20T06:33:59;17.70;1.00
12438;DHT22;6283;51.330;12.374;2023-07-20T06:36:25;17.70;1.00
12438;DHT22;6283;51.330;12.374;2023-07-20T06:38:53;17.70;1.00
12438;DHT22;6283;51.330;12.374;2023-07-20T06:41:19;17.70;1.00
12438;DHT22;6283;51.330;12.374;2023-07-20T06:43:45;17.80;1.00
12438;DHT22;6283;51.330;12.374;2023-07-20T06:46:11;17.90;1.00
12438;DHT22;6283;51.330;12.374;2023-07-20T06:48:37;18.00;1.00
12438;DHT22;6283;51.330;12.374;2023-07-20T06:51:02;18.00;1.00
12438;DHT22;6283;51.330;12.374;2023-07-20T06:53:29;18.10;1.00
12438;DHT22;6283;51.330;12.374;2023-07-20T06:55:54;18.20;99.90
12438;DHT22;6283;51.330;12.374;2023-07-20T06:58:25;18.30;99.90
12438;DHT22;6283;51.330;12.374;2023-07-20T07:00:51;18.40;99.90
12438;DHT22;6283;51.330;12.374;2023-07-20T07:03:17;18.40;99.90
12438;DHT22;6283;51.330;12.374;2023-07-20T07:05:43;18.40;99.90
12438;DHT22;6283;51.330;12.374;2023-07-20T07:08:10;18.40;99.90
12438;DHT22;6283;51.330;12.374;2023-07-20T07:10:36;18.40;99.90
12438;DHT22;6283;51.330;12.374;2023-07-20T07:13:02;18.40;99.90
12438;DHT22;6283;51.330;12.374;2023-07-20T07:15:29;18.40;99.90
12438;DHT22;6283;51.330;12.374;2023-07-20T07:17:54;18.30;99.90
12438;DHT22;6283;51.330;12.374;2023-07-20T07:20:20;18.30;99.90
12438;DHT22;6283;51.330;12.374;2023-07-20T07:22:46;18.30;99.90
12438;DHT22;6283;51.330;12.374;2023-07-20T07:25:12;18.40;99.90
12438;DHT22;6283;51.330;12.374;2023-07-20T07:27:38;18.40;99.90
12438;DHT22;6283;51.330;12.374;2023-07-20T07:30:04;18.50;99.90
12438;DHT22;6283;51.330;12.374;2023-07-20T07:32:30;18.60;99.90
12438;DHT22;6283;51.330;12.374;2023-07-20T07:34:56;18.70;99.90
12438;DHT22;6283;51.330;12.374;2023-07-20T07:37:24;18.70;99.90
12438;DHT22;6283;51.330;12.374;2023-07-20T07:39:49;18.70;99.90
12438;DHT22;6283;51.330;12.374;2023-07-20T07:42:15;18.60;99.90
12438;DHT22;6283;51.330;12.374;2023-07-20T07:44:41;18.60;99.90
12438;DHT22;6283;51.330;12.374;2023-07-20T07:47:06;18.60;99.90
12438;DHT22;6283;51.330;12.374;2023-07-20T07:49:32;18.60;99.90
12438;DHT22;6283;51.330;12.374;2023-07-20T07:51:58;18.60;99.90
12438;DHT22;6283;51.330;12.374;2023-07-20T07:54:23;18.60;99.90
12438;DHT22;6283;51.330;12.374;2023-07-20T07:56:49;18.70;99.90
12438;DHT22;6283;51.330;12.374;2023-07-20T07:59:16;18.80;99.90
12438;DHT22;6283;51.330;12.374;2023-07-20T08:01:42;18.80;99.90
12438;DHT22;6283;51.330;12.374;2023-07-20T08:04:08;18.80;99.90
12438;DHT22;6283;51.330;12.374;2023-07-20T08:06:33;18.80;99.90
12438;DHT22;6283;51.330;12.374;2023-07-20T08:08:59;18.80;99.90
12438;DHT22;6283;51.330;12.374;2023-07-20T08:11:25;18.90;99.90
12438;DHT22;6283;51.330;12.374;2023-07-20T08:13:51;18.90;99.90
12438;DHT22;6283;51.330;12.374;2023-07-20T08:16:17;19.00;99.90
12438;DHT22;6283;51.330;12.374;2023-07-20T08:18:43;19.10;99.90
12438;DHT22;6283;51.330;12.374;2023-07-20T08:21:09;19.10;99.90
12438;DHT22;6283;51.330;12.374;2023-07-20T08:23:35;19.20;99.90
12438;DHT22;6283;51.330;12.374;2023-07-20T08:26:00;19.20;99.90
12438;DHT22;6283;51.330;12.374;2023-07-20T08:28:26;19.30;99.90
12438;DHT22;6283;51.330;12.374;2023-07-20T08:30:52;19.30;99.90
12438;DHT22;6283;51.330;12.374;2023-07-20T08:33:19;19.30;99.90
12438;DHT22;6283;51.330;12.374;2023-07-20T08:35:45;19.30;99.90
12438;DHT22;6283;51.330;12.374;2023-07-20T08:38:11;19.30;99.90
12438;DHT22;6283;51.330;12.374;2023-07-20T08:40:42;19.30;99.90
12438;DHT22;6283;51.330;12.374;2023-07-20T08:43:10;19.20;99.90
12438;DHT22;6283;51.330;12.374;2023-07-20T08:45:36;19.20;99.90
12438;DHT22;6283;51.330;12.374;2023-07-20T08:48:05;19.30;99.90
12438;DHT22;6283;51.330;12.374;2023-07-20T08:50:32;19.30;99.90
12438;DHT22;6283;51.330;12.374;2023-07-20T08:52:59;19.30;99.90
12438;DHT22;6283;51.330;12.374;2023-07-20T08:55:26;19.40;99.90
12438;DHT22;6283;51.330;12.374;2023-07-20T08:57:54;19.50;99.90
12438;DHT22;6283;51.330;12.374;2023-07-20T09:00:22;19.60;99.90
12438;DHT22;6283;51.330;12.374;2023-07-20T09:02:52;19.80;99.90
12438;DHT22;6283;51.330;12.374;2023-07-20T09:05:18;19.90;99.90
12438;DHT22;6283;51.330;12.374;2023-07-20T09:07:44;20.20;99.90
12438;DHT22;6283;51.330;12.374;2023-07-20T09:10:10;20.40;99.90
12438;DHT22;6283;51.330;12.374;2023-07-20T09:12:38;20.50;60.30
12438;DHT22;6283;51.330;12.374;2023-07-20T09:15:06;20.70;36.80
12438;DHT22;6283;51.330;12.374;2023-07-20T09:17:32;20.70;17.10
12438;DHT22;6283;51.330;12.374;2023-07-20T09:19:57;20.70;10.50
12438;DHT22;6283;51.330;12.374;2023-07-20T09:22:30;20.70;4.10
12438;DHT22;6283;51.330;12.374;2023-07-20T09:24:56;20.80;1.00
12438;DHT22;6283;51.330;12.374;2023-07-20T09:27:29;20.90;1.00
12438;DHT22;6283;51.330;12.374;2023-07-20T09:29:56;21.00;1.00
12438;DHT22;6283;51.330;12.374;2023-07-20T09:32:22;21.10;1.00
12438;DHT22;6283;51.330;12.374;2023-07-20T09:34:49;21.20;1.00
12438;DHT22;6283;51.330;12.374;2023-07-20T09:37:20;21.30;1.00
12438;DHT22;6283;51.330;12.374;2023-07-20T09:39:47;21.30;1.00
12438;DHT22;6283;51.330;12.374;2023-07-20T09:42:13;21.20;1.00
12438;DHT22;6283;51.330;12.374;2023-07-20T09:44:39;21.10;1.00
12438;DHT22;6283;51.330;12.374;2023-07-20T09:47:06;21.00;1.00
12438;DHT22;6283;51.330;12.374;2023-07-20T09:49:32;20.80;1.00
12438;DHT22;6283;51.330;12.374;2023-07-20T09:51:58;20.50;1.00
12438;DHT22;6283;51.330;12.374;2023-07-20T09:54:28;20.00;77.30
12438;DHT22;6283;51.330;12.374;2023-07-20T09:56:56;19.20;99.90
12438;DHT22;6283;51.330;12.374;2023-07-20T09:59:22;18.30;1.00
12438;DHT22;6283;51.330;12.374;2023-07-20T10:01:49;17.50;99.90
12438;DHT22;6283;51.330;12.374;2023-07-20T10:04:16;16.90;1.00
12438;DHT22;6283;51.330;12.374;2023-07-20T10:06:47;16.50;41.10
12438;DHT22;6283;51.330;12.374;2023-07-20T10:09:15;16.40;1.00
12438;DHT22;6283;51.330;12.374;2023-07-20T10:11:45;16.30;1.00
12438;DHT22;6283;51.330;12.374;2023-07-20T10:14:20;16.30;99.90
12438;DHT22;6283;51.330;12.374;2023-07-20T10:16:58;16.30;99.90
12438;DHT22;6283;51.330;12.374;2023-07-20T10:19:46;16.30;99.90
12438;DHT22;6283;51.330;12.374;2023-07-20T10:22:15;16.40;99.90
12438;DHT22;6283;51.330;12.374;2023-07-20T10:24:45;16.40;99.90
12438;DHT22;6283;51.330;12.374;2023-07-20T10:27:12;16.50;99.90
12438;DHT22;6283;51.330;12.374;2023-07-20T10:29:39;16.70;99.90
12438;DHT22;6283;51.330;12.374;2023-07-20T10:32:06;16.80;99.90
12438;DHT22;6283;51.330;12.374;2023-07-20T10:34:33;16.90;99.90
12438;DHT22;6283;51.330;12.374;2023-07-20T10:36:59;16.90;99.90
12438;DHT22;6283;51.330;12.374;2023-07-20T10:39:26;16.80;99.90
12438;DHT22;6283;51.330;12.374;2023-07-20T10:42:03;16.70;99.90
12438;DHT22;6283;51.330;12.374;2023-07-20T10:44:29;16.60;99.90
12438;DHT22;6283;51.330;12.374;2023-07-20T10:47:03;16.60;99.90
12438;DHT22;6283;51.330;12.374;2023-07-20T10:49:33;16.70;1.00
12438;DHT22;6283;51.330;12.374;2023-07-20T10:52:05;16.80;1.00
12438;DHT22;6283;51.330;12.374;2023-07-20T10:54:33;16.90;1.00
12438;DHT22;6283;51.330;12.374;2023-07-20T10:57:22;17.20;1.00
12438;DHT22;6283;51.330;12.374;2023-07-20T10:59:48;17.40;1.00
12438;DHT22;6283;51.330;12.374;2023-07-20T11:02:18;17.60;1.00
12438;DHT22;6283;51.330;12.374;2023-07-20T11:04:48;17.70;1.00
12438;DHT22;6283;51.330;12.374;2023-07-20T11:07:23;17.60;1.00
12438;DHT22;6283;51.330;12.374;2023-07-20T11:10:13;17.60;1.00
12438;DHT22;6283;51.330;12.374;2023-07-20T11:12:40;17.70;1.00
12438;DHT22;6283;51.330;12.374;2023-07-20T11:15:06;17.90;1.00
12438;DHT22;6283;51.330;12.374;2023-07-20T11:17:33;18.10;1.00
12438;DHT22;6283;51.330;12.374;2023-07-20T11:20:00;18.20;1.00
12438;DHT22;6283;51.330;12.374;2023-07-20T11:22:27;18.00;1.00
12438;DHT22;6283;51.330;12.374;2023-07-20T11:24:55;17.70;99.90
12438;DHT22;6283;51.330;12.374;2023-07-20T11:27:21;17.50;99.90
12438;DHT22;6283;51.330;12.374;2023-07-20T11:29:48;17.30;99.90
12438;DHT22;6283;51.330;12.374;2023-07-20T11:32:20;17.10;99.90
12438;DHT22;6283;51.330;12.374;2023-07-20T11:34:47;17.00;99.90
12438;DHT22;6283;51.330;12.374;2023-07-20T11:37:13;16.90;99.90
12438;DHT22;6283;51.330;12.374;2023-07-20T11:39:38;16.80;99.90
12438;DHT22;6283;51.330;12.374;2023-07-20T11:42:05;16.80;99.90
12438;DHT22;6283;51.330;12.374;2023-07-20T11:44:32;16.80;99.90
12438;DHT22;6283;51.330;12.374;2023-07-20T11:47:09;16.80;99.90
12438;DHT22;6283;51.330;12.374;2023-07-20T11:49:40;16.90;99.90
12438;DHT22;6283;51.330;12.374;2023-07-20T11:52:07;17.00;1.40
12438;DHT22;6283;51.330;12.374;2023-07-20T11:54:34;17.00;99.90
12438;DHT22;6283;51.330;12.374;2023-07-20T11:57:01;17.10;99.90
12438;DHT22;6283;51.330;12.374;2023-07-20T11:59:27;17.10;99.90
12438;DHT22;6283;51.330;12.374;2023-07-20T12:01:53;17.10;99.90
12438;DHT22;6283;51.330;12.374;2023-07-20T12:04:18;17.30;1.00
12438;DHT22;6283;51.330;12.374;2023-07-20T12:06:45;17.30;99.90
12438;DHT22;6283;51.330;12.374;2023-07-20T12:09:16;17.30;99.90
12438;DHT22;6283;51.330;12.374;2023-07-20T12:11:44;17.20;99.90
12438;DHT22;6283;51.330;12.374;2023-07-20T12:14:12;17.20;99.90
12438;DHT22;6283;51.330;12.374;2023-07-20T12:16:38;17.20;99.90
12438;DHT22;6283;51.330;12.374;2023-07-20T12:19:09;17.40;1.00
12438;DHT22;6283;51.330;12.374;2023-07-20T12:21:36;17.60;1.00
12438;DHT22;6283;51.330;12.374;2023-07-20T12:24:03;17.60;1.00
12438;DHT22;6283;51.330;12.374;2023-07-20T12:26:30;17.70;99.90
12438;DHT22;6283;51.330;12.374;2023-07-20T12:28:56;17.80;99.90
12438;DHT22;6283;51.330;12.374;2023-07-20T12:31:22;17.90;99.90
12438;DHT22;6283;51.330;12.374;2023-07-20T12:33:50;17.80;99.90
12438;DHT22;6283;51.330;12.374;2023-07-20T12:36:19;17.90;99.90
12438;DHT22;6283;51.330;12.374;2023-07-20T12:38:45;18.00;99.90
12438;DHT22;6283;51.330;12.374;2023-07-20T12:41:12;18.00;99.90
12438;DHT22;6283;51.330;12.374;2023-07-20T12:43:39;18.10;99.90
12438;DHT22;6283;51.330;12.374;2023-07-20T12:46:05;18.20;99.90
12438;DHT22;6283;51.330;12.374;2023-07-20T12:48:31;18.30;99.90
12438;DHT22;6283;51.330;12.374;2023-07-20T12:50:57;18.30;99.90
12438;DHT22;6283;51.330;12.374;2023-07-20T12:53:23;18.30;99.90
12438;DHT22;6283;51.330;12.374;2023-07-20T12:55:49;18.20;99.90
12438;DHT22;6283;51.330;12.374;2023-07-20T12:58:15;18.20;99.90
12438;DHT22;6283;51.330;12.374;2023-07-20T13:00:40;18.30;99.90
12438;DHT22;6283;51.330;12.374;2023-07-20T13:03:07;18.40;99.90
12438;DHT22;6283;51.330;12.374;2023-07-20T13:05:34;18.70;99.90
12438;DHT22;6283;51.330;12.374;2023-07-20T13:08:01;18.80;99.90
12438;DHT22;6283;51.330;12.374;2023-07-20T13:10:27;18.70;1.00
12438;DHT22;6283;51.330;12.374;2023-07-20T13:12:53;18.60;1.00
12438;DHT22;6283;51.330;12.374;2023-07-20T13:15:18;18.40;99.90
12438;DHT22;6283;51.330;12.374;2023-07-20T13:17:44;18.40;99.90
12438;DHT22;6283;51.330;12.374;2023-07-20T13:20:11;18.40;1.00
12438;DHT22;6283;51.330;12.374;2023-07-20T13:22:39;18.20;1.00
12438;DHT22;6283;51.330;12.374;2023-07-20T13:25:06;18.20;84.60
12438;DHT22;6283;51.330;12.374;2023-07-20T13:27:32;18.20;99.90
12438;DHT22;6283;51.330;12.374;2023-07-20T13:30:01;18.30;99.90
12438;DHT22;6283;51.330;12.374;2023-07-20T13:32:31;18.40;99.90
12438;DHT22;6283;51.330;12.374;2023-07-20T13:34:57;18.80;48.50
12438;DHT22;6283;51.330;12.374;2023-07-20T13:37:23;19.00;1.00
12438;DHT22;6283;51.330;12.374;2023-07-20T13:39:48;19.00;99.90
12438;DHT22;6283;51.330;12.374;2023-07-20T13:42:14;19.00;1.00
12438;DHT22;6283;51.330;12.374;2023-07-20T13:44:40;19.10;99.90
12438;DHT22;6283;51.330;12.374;2023-07-20T13:47:06;19.40;1.00
12438;DHT22;6283;51.330;12.374;2023-07-20T13:49:32;19.60;99.90
12438;DHT22;6283;51.330;12.374;2023-07-20T13:51:58;19.60;99.90
12438;DHT22;6283;51.330;12.374;2023-07-20T13:54:24;19.60;1.00
12438;DHT22;6283;51.330;12.374;2023-07-20T13:56:50;19.50;1.00
12438;DHT22;6283;51.330;12.374;2023-07-20T13:59:17;19.50;99.90
12438;DHT22;6283;51.330;12.374;2023-07-20T14:01:43;19.60;1.00
12438;DHT22;6283;51.330;12.374;2023-07-20T14:04:08;19.70;1.00
12438;DHT22;6283;51.330;12.374;2023-07-20T14:06:34;19.80;99.90
12438;DHT22;6283;51.330;12.374;2023-07-20T14:09:01;19.70;99.90
12438;DHT22;6283;51.330;12.374;2023-07-20T14:11:27;19.40;99.90
12438;DHT22;6283;51.330;12.374;2023-07-20T14:13:53;19.40;99.90
12438;DHT22;6283;51.330;12.374;2023-07-20T14:16:20;19.20;1.00
12438;DHT22;6283;51.330;12.374;2023-07-20T14:18:46;19.30;1.00
12438;DHT22;6283;51.330;12.374;2023-07-20T14:21:13;19.40;1.00
12438;DHT22;6283;51.330;12.374;2023-07-20T14:23:38;19.50;99.90
12438;DHT22;6283;51.330;12.374;2023-07-20T14:26:04;19.60;99.90
12438;DHT22;6283;51.330;12.374;2023-07-20T14:28:31;20.10;99.90
12438;DHT22;6283;51.330;12.374;2023-07-20T14:30:57;20.50;99.90
12438;DHT22;6283;51.330;12.374;2023-07-20T14:33:23;21.10;69.40
12438;DHT22;6283;51.330;12.374;2023-07-20T14:35:48;21.60;7.50
12438;DHT22;6283;51.330;12.374;2023-07-20T14:38:14;22.00;1.00
12438;DHT22;6283;51.330;12.374;2023-07-20T14:40:39;22.50;1.00
12438;DHT22;6283;51.330;12.374;2023-07-20T14:43:06;23.00;1.00
12438;DHT22;6283;51.330;12.374;2023-07-20T14:45:32;23.40;1.00
12438;DHT22;6283;51.330;12.374;2023-07-20T14:47:57;23.70;1.00
12438;DHT22;6283;51.330;12.374;2023-07-20T14:50:23;24.10;1.00
12438;DHT22;6283;51.330;12.374;2023-07-20T14:52:49;24.40;1.00
12438;DHT22;6283;51.330;12.374;2023-07-20T14:55:15;24.80;1.00
12438;DHT22;6283;51.330;12.374;2023-07-20T14:57:40;25.10;1.00
12438;DHT22;6283;51.330;12.374;2023-07-20T15:00:07;25.30;1.00
12438;DHT22;6283;51.330;12.374;2023-07-20T15:02:38;25.30;1.00
12438;DHT22;6283;51.330;12.374;2023-07-20T15:05:08;25.40;1.00
12438;DHT22;6283;51.330;12.374;2023-07-20T15:07:34;25.60;1.00
12438;DHT22;6283;51.330;12.374;2023-07-20T15:10:00;25.50;1.00
12438;DHT22;6283;51.330;12.374;2023-07-20T15:12:26;25.60;1.00
12438;DHT22;6283;51.330;12.374;2023-07-20T15:15:05;25.60;1.00
12438;DHT22;6283;51.330;12.374;2023-07-20T15:17:32;25.70;1.00
12438;DHT22;6283;51.330;12.374;2023-07-20T15:19:57;25.80;1.00
12438;DHT22;6283;51.330;12.374;2023-07-20T15:22:23;25.80;1.00
12438;DHT22;6283;51.330;12.374;2023-07-20T15:24:49;25.80;1.00
12438;DHT22;6283;51.330;12.374;2023-07-20T15:27:15;25.90;1.00
12438;DHT22;6283;51.330;12.374;2023-07-20T15:29:40;26.10;1.00
12438;DHT22;6283;51.330;12.374;2023-07-20T15:32:06;26.20;1.00
12438;DHT22;6283;51.330;12.374;2023-07-20T15:34:35;26.10;1.00
12438;DHT22;6283;51.330;12.374;2023-07-20T15:37:00;26.00;1.00
12438;DHT22;6283;51.330;12.374;2023-07-20T15:39:26;26.00;1.00